sensor_id;sensor_type;location;lat;lon;timestamp;pressure;altitude;pressure_sealevel;temperature
23208;BMP180;11773;52.570;13.052;2024-03-22T00:01:12;101810.00;;;14.90
23208;BMP180;11773;52.570;13.052;2024-03-22T00:03:42;101809.00;;;14.90
23208;BMP180;11773;52.570;13.052;2024-03-22T00:06:11;101820.00;;;14.90
23208;BMP180;11773;52.570;13.052;2024-03-22T00:08:41;101828.00;;;14.90
23208;BMP180;11773;52.570;13.052;2024-03-22T00:11:10;101805.00;;;14.90
23208;BMP180;11773;52.570;13.052;2024-03-22T00:13:40;101802.00;;;14.90
23208;BMP180;11773;52.570;13.052;2024-03-22T00:16:10;101809.00;;;14.90
23208;BMP180;11773;52.570;13.052;2024-03-22T00:18:39;101812.00;;;14.90
23208;BMP180;11773;52.570;13.052;2024-03-22T00:21:09;101797.00;;;14.90
23208;BMP180;11773;52.570;13.052;2024-03-22T00:23:38;101794.00;;;14.90
23208;BMP180;11773;52.570;13.052;2024-03-22T00:26:08;101789.00;;;14.90
23208;BMP180;11773;52.570;13.052;2024-03-22T00:28:37;101787.00;;;14.90
23208;BMP180;11773;52.570;13.052;2024-03-22T00:31:08;101782.00;;;15.00
23208;BMP180;11773;52.570;13.052;2024-03-22T00:33:37;101781.00;;;15.00
23208;BMP180;11773;52.570;13.052;2024-03-22T00:36:08;101777.00;;;15.00
23208;BMP180;11773;52.570;13.052;2024-03-22T00:38:37;101782.00;;;15.00
23208;BMP180;11773;52.570;13.052;2024-03-22T00:41:07;101778.00;;;15.00
23208;BMP180;11773;52.570;13.052;2024-03-22T00:43:37;101784.00;;;15.00
23208;BMP180;11773;52.570;13.052;2024-03-22T00:46:06;101774.00;;;15.00
23208;BMP180;11773;52.570;13.052;2024-03-22T00:48:36;101765.00;;;15.00
23208;BMP180;11773;52.570;13.052;2024-03-22T00:51:05;101761.00;;;15.00
23208;BMP180;11773;52.570;13.052;2024-03-22T00:53:35;101760.00;;;15.00
23208;BMP180;11773;52.570;13.052;2024-03-22T00:56:05;101757.00;;;14.90
23208;BMP180;11773;52.570;13.052;2024-03-22T00:58:35;101753.00;;;14.90
23208;BMP180;11773;52.570;13.052;2024-03-22T01:01:04;101749.00;;;14.90
23208;BMP180;11773;52.570;13.052;2024-03-22T01:03:34;101748.00;;;14.90
23208;BMP180;11773;52.570;13.052;2024-03-22T01:06:04;101743.00;;;14.90
23208;BMP180;11773;52.570;13.052;2024-03-22T01:08:34;101741.00;;;14.90
23208;BMP180;11773;52.570;13.052;2024-03-22T01:11:03;101746.00;;;14.90
23208;BMP180;11773;52.570;13.052;2024-03-22T01:13:33;101750.00;;;14.90
23208;BMP180;11773;52.570;13.052;2024-03-22T01:16:03;101748.00;;;14.90
23208;BMP180;11773;52.570;13.052;2024-03-22T01:18:32;101734.00;;;14.90
23208;BMP180;11773;52.570;13.052;2024-03-22T01:21:02;101725.00;;;14.90
23208;BMP180;11773;52.570;13.052;2024-03-22T01:23:32;101738.00;;;14.90
23208;BMP180;11773;52.570;13.052;2024-03-22T01:26:02;101739.00;;;14.80
23208;BMP180;11773;52.570;13.052;2024-03-22T01:28:32;101732.00;;;14.80
23208;BMP180;11773;52.570;13.052;2024-03-22T01:31:01;101730.00;;;14.80
23208;BMP180;11773;52.570;13.052;2024-03-22T01:33:31;101718.00;;;14.80
23208;BMP180;11773;52.570;13.052;2024-03-22T01:36:00;101728.00;;;14.80
23208;BMP180;11773;52.570;13.052;2024-03-22T01:38:30;101725.00;;;14.80
23208;BMP180;11773;52.570;13.052;2024-03-22T01:41:00;101713.00;;;14.80
23208;BMP180;11773;52.570;13.052;2024-03-22T01:43:29;101713.00;;;14.80
23208;BMP180;11773;52.570;13.052;2024-03-22T01:45:59;101713.00;;;14.80
23208;BMP180;11773;52.570;13.052;2024-03-22T01:48:29;101724.00;;;14.80
23208;BMP180;11773;52.570;13.052;2024-03-22T01:50:58;101707.00;;;14.80
23208;BMP180;11773;52.570;13.052;2024-03-22T01:53:28;101718.00;;;14.80
23208;BMP180;11773;52.570;13.052;2024-03-22T01:55:58;101704.00;;;14.80
23208;BMP180;11773;52.570;13.052;2024-03-22T01:58:28;101710.00;;;14.80
23208;BMP180;11773;52.570;13.052;2024-03-22T02:00:58;101693.00;;;14.90
23208;BMP180;11773;52.570;13.052;2024-03-22T02:03:27;101694.00;;;14.90
23208;BMP180;11773;52.570;13.052;2024-03-22T02:06:16;101693.00;;;14.90
23208;BMP180;11773;52.570;13.052;2024-03-22T02:08:46;101683.00;;;14.90
23208;BMP180;11773;52.570;13.052;2024-03-22T02:11:15;101691.00;;;14.90
23208;BMP180;11773;52.570;13.052;2024-03-22T02:13:45;101682.00;;;14.90
23208;BMP180;11773;52.570;13.052;2024-03-22T02:16:15;101675.00;;;14.90
23208;BMP180;11773;52.570;13.052;2024-03-22T02:18:45;101669.00;;;14.80
23208;BMP180;11773;52.570;13.052;2024-03-22T02:21:14;101677.00;;;14.80
23208;BMP180;11773;52.570;13.052;2024-03-22T02:23:44;101657.00;;;14.80
23208;BMP180;11773;52.570;13.052;2024-03-22T02:26:14;101659.00;;;14.80
23208;BMP180;11773;52.570;13.052;2024-03-22T02:28:43;101653.00;;;14.80
23208;BMP180;11773;52.570;13.052;2024-03-22T02:31:13;101651.00;;;14.80
23208;BMP180;11773;52.570;13.052;2024-03-22T02:33:43;101654.00;;;14.80
23208;BMP180;11773;52.570;13.052;2024-03-22T02:36:12;101658.00;;;14.80
23208;BMP180;11773;52.570;13.052;2024-03-22T02:38:42;101648.00;;;14.80
23208;BMP180;11773;52.570;13.052;2024-03-22T02:41:11;101658.00;;;14.80
23208;BMP180;11773;52.570;13.052;2024-03-22T02:43:41;101658.00;;;14.80
23208;BMP180;11773;52.570;13.052;2024-03-22T02:46:10;101640.00;;;14.80
23208;BMP180;11773;52.570;13.052;2024-03-22T02:48:40;101636.00;;;14.80
23208;BMP180;11773;52.570;13.052;2024-03-22T02:51:09;101632.00;;;14.80
23208;BMP180;11773;52.570;13.052;2024-03-22T02:53:39;101627.00;;;14.80
23208;BMP180;11773;52.570;13.052;2024-03-22T02:56:08;101627.00;;;14.80
23208;BMP180;11773;52.570;13.052;2024-03-22T02:58:38;101621.00;;;14.80
23208;BMP180;11773;52.570;13.052;2024-03-22T03:01:07;101606.00;;;14.80
23208;BMP180;11773;52.570;13.052;2024-03-22T03:03:37;101600.00;;;14.80
23208;BMP180;11773;52.570;13.052;2024-03-22T03:06:07;101601.00;;;14.80
23208;BMP180;11773;52.570;13.052;2024-03-22T03:08:37;101602.00;;;14.80
23208;BMP180;11773;52.570;13.052;2024-03-22T03:11:06;101608.00;;;14.80
23208;BMP180;11773;52.570;13.052;2024-03-22T03:13:36;101602.00;;;14.80
23208;BMP180;11773;52.570;13.052;2024-03-22T03:16:06;101589.00;;;14.80
23208;BMP180;11773;52.570;13.052;2024-03-22T03:18:35;101577.00;;;14.80
23208;BMP180;11773;52.570;13.052;2024-03-22T03:21:05;101576.00;;;14.80
23208;BMP180;11773;52.570;13.052;2024-03-22T03:23:34;101556.00;;;14.80
23208;BMP180;11773;52.570;13.052;2024-03-22T03:26:04;101546.00;;;14.80
23208;BMP180;11773;52.570;13.052;2024-03-22T03:28:33;101558.00;;;14.80
23208;BMP180;11773;52.570;13.052;2024-03-22T03:31:03;101561.00;;;14.80
23208;BMP180;11773;52.570;13.052;2024-03-22T03:33:33;101549.00;;;14.80
23208;BMP180;11773;52.570;13.052;2024-03-22T03:36:03;101547.00;;;14.80
23208;BMP180;11773;52.570;13.052;2024-03-22T03:38:32;101552.00;;;14.80
23208;BMP180;11773;52.570;13.052;2024-03-22T03:41:02;101551.00;;;14.80
23208;BMP180;11773;52.570;13.052;2024-03-22T03:43:32;101529.00;;;14.80
23208;BMP180;11773;52.570;13.052;2024-03-22T03:46:02;101520.00;;;14.80
23208;BMP180;11773;52.570;13.052;2024-03-22T03:48:31;101517.00;;;14.80
23208;BMP180;11773;52.570;13.052;2024-03-22T03:51:01;101514.00;;;14.80
23208;BMP180;11773;52.570;13.052;2024-03-22T03:53:31;101521.00;;;14.80
23208;BMP180;11773;52.570;13.052;2024-03-22T03:56:01;101506.00;;;14.80
23208;BMP180;11773;52.570;13.052;2024-03-22T03:58:30;101495.00;;;14.80
23208;BMP180;11773;52.570;13.052;2024-03-22T04:01:08;101503.00;;;14.80
23208;BMP180;11773;52.570;13.052;2024-03-22T04:03:36;101500.00;;;14.80
23208;BMP180;11773;52.570;13.052;2024-03-22T04:06:05;101496.00;;;14.80
23208;BMP180;11773;52.570;13.052;2024-03-22T04:08:35;101497.00;;;14.70
23208;BMP180;11773;52.570;13.052;2024-03-22T04:11:04;101495.00;;;14.80
23208;BMP180;11773;52.570;13.052;2024-03-22T04:13:34;101495.00;;;14.70
23208;BMP180;11773;52.570;13.052;2024-03-22T04:16:04;101487.00;;;14.70
23208;BMP180;11773;52.570;13.052;2024-03-22T04:18:33;101489.00;;;14.80
23208;BMP180;11773;52.570;13.052;2024-03-22T04:21:03;101504.00;;;14.80
23208;BMP180;11773;52.570;13.052;2024-03-22T04:23:33;101494.00;;;14.80
23208;BMP180;11773;52.570;13.052;2024-03-22T04:26:03;101479.00;;;14.80
23208;BMP180;11773;52.570;13.052;2024-03-22T04:28:32;101480.00;;;14.80
23208;BMP180;11773;52.570;13.052;2024-03-22T04:31:08;101491.00;;;14.80
23208;BMP180;11773;52.570;13.052;2024-03-22T04:33:38;101478.00;;;14.80
23208;BMP180;11773;52.570;13.052;2024-03-22T04:36:08;101470.00;;;14.80
23208;BMP180;11773;52.570;13.052;2024-03-22T04:38:38;101460.00;;;14.80
23208;BMP180;11773;52.570;13.052;2024-03-22T04:41:07;101459.00;;;14.80
23208;BMP180;11773;52.570;13.052;2024-03-22T04:43:37;101473.00;;;14.80
23208;BMP180;11773;52.570;13.052;2024-03-22T04:46:07;101448.00;;;14.80
23208;BMP180;11773;52.570;13.052;2024-03-22T04:48:37;101454.00;;;14.80
23208;BMP180;11773;52.570;13.052;2024-03-22T04:51:06;101457.00;;;14.80
23208;BMP180;11773;52.570;13.052;2024-03-22T04:53:36;101457.00;;;14.80
23208;BMP180;11773;52.570;13.052;2024-03-22T04:56:06;101448.00;;;14.80
23208;BMP180;11773;52.570;13.052;2024-03-22T04:58:36;101457.00;;;14.80
23208;BMP180;11773;52.570;13.052;2024-03-22T05:01:05;101475.00;;;14.80
23208;BMP180;11773;52.570;13.052;2024-03-22T05:03:35;101448.00;;;14.80
23208;BMP180;11773;52.570;13.052;2024-03-22T05:06:05;101463.00;;;14.80
23208;BMP180;11773;52.570;13.052;2024-03-22T05:08:34;101454.00;;;14.80
23208;BMP180;11773;52.570;13.052;2024-03-22T05:11:04;101444.00;;;14.80
23208;BMP180;11773;52.570;13.052;2024-03-22T05:13:34;101442.00;;;14.80
23208;BMP180;11773;52.570;13.052;2024-03-22T05:16:04;101438.00;;;14.80
23208;BMP180;11773;52.570;13.052;2024-03-22T05:18:33;101433.00;;;14.90
23208;BMP180;11773;52.570;13.052;2024-03-22T05:21:03;101441.00;;;14.90
23208;BMP180;11773;52.570;13.052;2024-03-22T05:23:33;101433.00;;;14.90
23208;BMP180;11773;52.570;13.052;2024-03-22T05:26:02;101425.00;;;14.90
23208;BMP180;11773;52.570;13.052;2024-03-22T05:28:33;101422.00;;;14.90
23208;BMP180;11773;52.570;13.052;2024-03-22T05:31:02;101416.00;;;14.90
23208;BMP180;11773;52.570;13.052;2024-03-22T05:33:32;101416.00;;;14.90
23208;BMP180;11773;52.570;13.052;2024-03-22T05:36:02;101406.00;;;14.90
23208;BMP180;11773;52.570;13.052;2024-03-22T05:38:31;101404.00;;;14.90
23208;BMP180;11773;52.570;13.052;2024-03-22T05:41:05;101410.00;;;14.90
23208;BMP180;11773;52.570;13.052;2024-03-22T05:43:35;101404.00;;;15.00
23208;BMP180;11773;52.570;13.052;2024-03-22T05:46:04;101405.00;;;15.00
23208;BMP180;11773;52.570;13.052;2024-03-22T05:48:34;101398.00;;;15.00
23208;BMP180;11773;52.570;13.052;2024-03-22T05:51:14;101391.00;;;15.00
23208;BMP180;11773;52.570;13.052;2024-03-22T05:53:44;101390.00;;;15.00
23208;BMP180;11773;52.570;13.052;2024-03-22T05:56:13;101392.00;;;15.00
23208;BMP180;11773;52.570;13.052;2024-03-22T05:58:43;101391.00;;;15.00
23208;BMP180;11773;52.570;13.052;2024-03-22T06:01:13;101395.00;;;15.10
23208;BMP180;11773;52.570;13.052;2024-03-22T06:03:42;101378.00;;;15.10
23208;BMP180;11773;52.570;13.052;2024-03-22T06:06:12;101384.00;;;15.10
23208;BMP180;11773;52.570;13.052;2024-03-22T06:08:41;101385.00;;;15.10
23208;BMP180;11773;52.570;13.052;2024-03-22T06:11:14;101363.00;;;15.10
23208;BMP180;11773;52.570;13.052;2024-03-22T06:13:44;101355.00;;;15.10
23208;BMP180;11773;52.570;13.052;2024-03-22T06:16:14;101348.00;;;15.20
23208;BMP180;11773;52.570;13.052;2024-03-22T06:18:45;101349.00;;;15.20
23208;BMP180;11773;52.570;13.052;2024-03-22T06:21:15;101374.00;;;15.20
23208;BMP180;11773;52.570;13.052;2024-03-22T06:23:46;101355.00;;;15.20
23208;BMP180;11773;52.570;13.052;2024-03-22T06:26:16;101348.00;;;15.20
23208;BMP180;11773;52.570;13.052;2024-03-22T06:28:47;101347.00;;;15.20
23208;BMP180;11773;52.570;13.052;2024-03-22T06:31:17;101352.00;;;15.30
23208;BMP180;11773;52.570;13.052;2024-03-22T06:33:46;101340.00;;;15.20
23208;BMP180;11773;52.570;13.052;2024-03-22T06:36:16;101346.00;;;15.30
23208;BMP180;11773;52.570;13.052;2024-03-22T06:38:48;101339.00;;;15.30
23208;BMP180;11773;52.570;13.052;2024-03-22T06:41:17;101335.00;;;15.30
23208;BMP180;11773;52.570;13.052;2024-03-22T06:43:47;101344.00;;;15.30
23208;BMP180;11773;52.570;13.052;2024-03-22T06:46:16;101334.00;;;15.30
23208;BMP180;11773;52.570;13.052;2024-03-22T06:48:46;101327.00;;;15.30
23208;BMP180;11773;52.570;13.052;2024-03-22T06:51:16;101338.00;;;15.30
23208;BMP180;11773;52.570;13.052;2024-03-22T06:53:46;101345.00;;;15.30
23208;BMP180;11773;52.570;13.052;2024-03-22T06:56:17;101319.00;;;15.30
23208;BMP180;11773;52.570;13.052;2024-03-22T06:58:47;101331.00;;;15.40
23208;BMP180;11773;52.570;13.052;2024-03-22T07:01:17;101330.00;;;15.40
23208;BMP180;11773;52.570;13.052;2024-03-22T07:03:48;101325.00;;;15.40
23208;BMP180;11773;52.570;13.052;2024-03-22T07:06:19;101322.00;;;15.40
23208;BMP180;11773;52.570;13.052;2024-03-22T07:08:49;101324.00;;;15.40
23208;BMP180;11773;52.570;13.052;2024-03-22T07:11:18;101325.00;;;15.40
23208;BMP180;11773;52.570;13.052;2024-03-22T07:13:48;101334.00;;;15.50
23208;BMP180;11773;52.570;13.052;2024-03-22T07:16:19;101333.00;;;15.50
23208;BMP180;11773;52.570;13.052;2024-03-22T07:18:48;101319.00;;;15.50
23208;BMP180;11773;52.570;13.052;2024-03-22T07:21:18;101320.00;;;15.50
23208;BMP180;11773;52.570;13.052;2024-03-22T07:23:48;101315.00;;;15.50
23208;BMP180;11773;52.570;13.052;2024-03-22T07:26:18;101316.00;;;15.60
23208;BMP180;11773;52.570;13.052;2024-03-22T07:28:49;101318.00;;;15.60
23208;BMP180;11773;52.570;13.052;2024-03-22T07:31:19;101333.00;;;15.60
23208;BMP180;11773;52.570;13.052;2024-03-22T07:33:48;101315.00;;;15.60
23208;BMP180;11773;52.570;13.052;2024-03-22T07:36:18;101323.00;;;15.70
23208;BMP180;11773;52.570;13.052;2024-03-22T07:38:49;101317.00;;;15.70
23208;BMP180;11773;52.570;13.052;2024-03-22T07:41:19;101317.00;;;15.70
23208;BMP180;11773;52.570;13.052;2024-03-22T07:43:48;101310.00;;;15.70
23208;BMP180;11773;52.570;13.052;2024-03-22T07:46:18;101297.00;;;15.70
23208;BMP180;11773;52.570;13.052;2024-03-22T07:48:48;101302.00;;;15.70
23208;BMP180;11773;52.570;13.052;2024-03-22T07:51:17;101311.00;;;15.80
23208;BMP180;11773;52.570;13.052;2024-03-22T07:53:47;101303.00;;;15.80
23208;BMP180;11773;52.570;13.052;2024-03-22T07:56:17;101290.00;;;15.80
23208;BMP180;11773;52.570;13.052;2024-03-22T07:58:47;101290.00;;;15.80
23208;BMP180;11773;52.570;13.052;2024-03-22T08:01:17;101284.00;;;15.90
23208;BMP180;11773;52.570;13.052;2024-03-22T08:03:46;101296.00;;;15.90
23208;BMP180;11773;52.570;13.052;2024-03-22T08:06:16;101290.00;;;15.90
23208;BMP180;11773;52.570;13.052;2024-03-22T08:08:45;101303.00;;;15.90
23208;BMP180;11773;52.570;13.052;2024-03-22T08:11:15;101292.00;;;16.00
23208;BMP180;11773;52.570;13.052;2024-03-22T08:13:45;101291.00;;;16.00
23208;BMP180;11773;52.570;13.052;2024-03-22T08:16:15;101282.00;;;16.00
23208;BMP180;11773;52.570;13.052;2024-03-22T08:18:44;101279.00;;;16.00
23208;BMP180;11773;52.570;13.052;2024-03-22T08:21:14;101275.00;;;16.10
23208;BMP180;11773;52.570;13.052;2024-03-22T08:23:45;101269.00;;;16.10
23208;BMP180;11773;52.570;13.052;2024-03-22T08:26:15;101277.00;;;16.10
23208;BMP180;11773;52.570;13.052;2024-03-22T08:28:46;101262.00;;;16.10
23208;BMP180;11773;52.570;13.052;2024-03-22T08:31:16;101248.00;;;16.10
23208;BMP180;11773;52.570;13.052;2024-03-22T08:33:54;101248.00;;;16.20
23208;BMP180;11773;52.570;13.052;2024-03-22T08:36:20;101239.00;;;16.20
23208;BMP180;11773;52.570;13.052;2024-03-22T08:38:49;101247.00;;;16.20
23208;BMP180;11773;52.570;13.052;2024-03-22T08:41:19;101246.00;;;16.20
23208;BMP180;11773;52.570;13.052;2024-03-22T08:43:48;101240.00;;;16.20
23208;BMP180;11773;52.570;13.052;2024-03-22T08:46:18;101235.00;;;16.20
23208;BMP180;11773;52.570;13.052;2024-03-22T08:48:49;101232.00;;;16.30
23208;BMP180;11773;52.570;13.052;2024-03-22T08:51:20;101233.00;;;16.30
23208;BMP180;11773;52.570;13.052;2024-03-22T08:53:50;101224.00;;;16.30
23208;BMP180;11773;52.570;13.052;2024-03-22T08:56:20;101224.00;;;16.40
23208;BMP180;11773;52.570;13.052;2024-03-22T08:58:50;101223.00;;;16.40
23208;BMP180;11773;52.570;13.052;2024-03-22T09:01:23;101219.00;;;16.50
23208;BMP180;11773;52.570;13.052;2024-03-22T09:03:52;101215.00;;;16.50
23208;BMP180;11773;52.570;13.052;2024-03-22T09:06:22;101220.00;;;16.60
23208;BMP180;11773;52.570;13.052;2024-03-22T09:08:51;101212.00;;;16.60
23208;BMP180;11773;52.570;13.052;2024-03-22T09:11:24;101206.00;;;16.70
23208;BMP180;11773;52.570;13.052;2024-03-22T09:13:54;101214.00;;;16.70
23208;BMP180;11773;52.570;13.052;2024-03-22T09:16:24;101197.00;;;16.80
23208;BMP180;11773;52.570;13.052;2024-03-22T09:18:54;101199.00;;;16.80
23208;BMP180;11773;52.570;13.052;2024-03-22T09:21:23;101197.00;;;16.90
23208;BMP180;11773;52.570;13.052;2024-03-22T09:23:53;101206.00;;;16.90
23208;BMP180;11773;52.570;13.052;2024-03-22T09:26:23;101207.00;;;17.00
23208;BMP180;11773;52.570;13.052;2024-03-22T09:28:52;101190.00;;;17.00
23208;BMP180;11773;52.570;13.052;2024-03-22T09:31:22;101187.00;;;17.00
23208;BMP180;11773;52.570;13.052;2024-03-22T09:33:52;101192.00;;;17.10
23208;BMP180;11773;52.570;13.052;2024-03-22T09:36:22;101188.00;;;17.10
23208;BMP180;11773;52.570;13.052;2024-03-22T09:38:53;101192.00;;;17.20
23208;BMP180;11773;52.570;13.052;2024-03-22T09:41:24;101196.00;;;17.20
23208;BMP180;11773;52.570;13.052;2024-03-22T09:43:57;101185.00;;;17.20
23208;BMP180;11773;52.570;13.052;2024-03-22T09:46:29;101195.00;;;17.30
23208;BMP180;11773;52.570;13.052;2024-03-22T09:49:01;101183.00;;;17.30
23208;BMP180;11773;52.570;13.052;2024-03-22T09:51:32;101183.00;;;17.30
23208;BMP180;11773;52.570;13.052;2024-03-22T09:54:06;101179.00;;;17.40
23208;BMP180;11773;52.570;13.052;2024-03-22T09:56:41;101175.00;;;17.40
23208;BMP180;11773;52.570;13.052;2024-03-22T09:59:11;101176.00;;;17.50
23208;BMP180;11773;52.570;13.052;2024-03-22T10:01:41;101169.00;;;17.50
23208;BMP180;11773;52.570;13.052;2024-03-22T10:04:12;101177.00;;;17.50
23208;BMP180;11773;52.570;13.052;2024-03-22T10:06:41;101159.00;;;17.60
23208;BMP180;11773;52.570;13.052;2024-03-22T10:09:11;101177.00;;;17.60
23208;BMP180;11773;52.570;13.052;2024-03-22T10:11:41;101166.00;;;17.70
23208;BMP180;11773;52.570;13.052;2024-03-22T10:14:12;101150.00;;;17.70
23208;BMP180;11773;52.570;13.052;2024-03-22T10:16:43;101154.00;;;17.80
23208;BMP180;11773;52.570;13.052;2024-03-22T10:19:13;101146.00;;;17.80
23208;BMP180;11773;52.570;13.052;2024-03-22T10:21:42;101154.00;;;17.90
23208;BMP180;11773;52.570;13.052;2024-03-22T10:24:14;101148.00;;;17.90
23208;BMP180;11773;52.570;13.052;2024-03-22T10:26:44;101138.00;;;18.00
23208;BMP180;11773;52.570;13.052;2024-03-22T10:29:13;101156.00;;;18.10
23208;BMP180;11773;52.570;13.052;2024-03-22T10:31:44;101153.00;;;18.20
23208;BMP180;11773;52.570;13.052;2024-03-22T10:34:14;101147.00;;;18.20
23208;BMP180;11773;52.570;13.052;2024-03-22T10:36:46;101148.00;;;18.30
23208;BMP180;11773;52.570;13.052;2024-03-22T10:39:18;101157.00;;;18.40
23208;BMP180;11773;52.570;13.052;2024-03-22T10:41:48;101132.00;;;18.50
23208;BMP180;11773;52.570;13.052;2024-03-22T10:44:18;101136.00;;;18.50
23208;BMP180;11773;52.570;13.052;2024-03-22T10:46:49;101127.00;;;18.60
23208;BMP180;11773;52.570;13.052;2024-03-22T10:49:21;101134.00;;;18.70
23208;BMP180;11773;52.570;13.052;2024-03-22T10:51:59;101135.00;;;18.80
23208;BMP180;11773;52.570;13.052;2024-03-22T10:54:38;101129.00;;;18.80
23208;BMP180;11773;52.570;13.052;2024-03-22T10:57:11;101135.00;;;18.80
23208;BMP180;11773;52.570;13.052;2024-03-22T10:59:46;101116.00;;;18.90
23208;BMP180;11773;52.570;13.052;2024-03-22T11:02:18;101121.00;;;18.90
23208;BMP180;11773;52.570;13.052;2024-03-22T11:04:59;101122.00;;;18.90
23208;BMP180;11773;52.570;13.052;2024-03-22T11:07:32;101140.00;;;18.90
23208;BMP180;11773;52.570;13.052;2024-03-22T11:10:05;101135.00;;;18.90
23208;BMP180;11773;52.570;13.052;2024-03-22T11:12:38;101127.00;;;18.90
23208;BMP180;11773;52.570;13.052;2024-03-22T11:15:09;101137.00;;;18.90
23208;BMP180;11773;52.570;13.052;2024-03-22T11:17:41;101135.00;;;18.90
23208;BMP180;11773;52.570;13.052;2024-03-22T11:20:11;101118.00;;;18.90
23208;BMP180;11773;52.570;13.052;2024-03-22T11:22:41;101125.00;;;18.90
23208;BMP180;11773;52.570;13.052;2024-03-22T11:25:11;101112.00;;;18.90
23208;BMP180;11773;52.570;13.052;2024-03-22T11:27:40;101109.00;;;18.90
23208;BMP180;11773;52.570;13.052;2024-03-22T11:30:10;101094.00;;;18.90
23208;BMP180;11773;52.570;13.052;2024-03-22T11:32:41;101101.00;;;18.80
23208;BMP180;11773;52.570;13.052;2024-03-22T11:35:14;101113.00;;;18.80
23208;BMP180;11773;52.570;13.052;2024-03-22T11:37:43;101115.00;;;18.80
23208;BMP180;11773;52.570;13.052;2024-03-22T11:40:13;101099.00;;;18.80
23208;BMP180;11773;52.570;13.052;2024-03-22T11:42:49;101100.00;;;18.80
23208;BMP180;11773;52.570;13.052;2024-03-22T11:45:20;101102.00;;;18.80
23208;BMP180;11773;52.570;13.052;2024-03-22T11:47:51;101095.00;;;18.80
23208;BMP180;11773;52.570;13.052;2024-03-22T11:50:25;101092.00;;;18.70
23208;BMP180;11773;52.570;13.052;2024-03-22T11:52:54;101087.00;;;18.70
23208;BMP180;11773;52.570;13.052;2024-03-22T11:55:27;101079.00;;;18.70
23208;BMP180;11773;52.570;13.052;2024-03-22T11:58:01;101095.00;;;18.70
23208;BMP180;11773;52.570;13.052;2024-03-22T12:00:31;101072.00;;;18.60
23208;BMP180;11773;52.570;13.052;2024-03-22T12:03:07;101078.00;;;18.60
23208;BMP180;11773;52.570;13.052;2024-03-22T12:05:36;101061.00;;;18.60
23208;BMP180;11773;52.570;13.052;2024-03-22T12:08:06;101061.00;;;18.60
23208;BMP180;11773;52.570;13.052;2024-03-22T12:10:36;101042.00;;;18.60
23208;BMP180;11773;52.570;13.052;2024-03-22T12:13:08;101036.00;;;18.60
23208;BMP180;11773;52.570;13.052;2024-03-22T12:15:48;101041.00;;;18.60
23208;BMP180;11773;52.570;13.052;2024-03-22T12:18:18;101042.00;;;18.50
23208;BMP180;11773;52.570;13.052;2024-03-22T12:20:47;101042.00;;;18.50
23208;BMP180;11773;52.570;13.052;2024-03-22T12:23:17;101057.00;;;18.50
23208;BMP180;11773;52.570;13.052;2024-03-22T12:25:47;101032.00;;;18.50
23208;BMP180;11773;52.570;13.052;2024-03-22T12:28:17;101036.00;;;18.50
23208;BMP180;11773;52.570;13.052;2024-03-22T12:30:46;101027.00;;;18.50
23208;BMP180;11773;52.570;13.052;2024-03-22T12:33:16;101027.00;;;18.50
23208;BMP180;11773;52.570;13.052;2024-03-22T12:35:46;101024.00;;;18.50
23208;BMP180;11773;52.570;13.052;2024-03-22T12:38:16;101025.00;;;18.50
23208;BMP180;11773;52.570;13.052;2024-03-22T12:40:46;101017.00;;;18.40
23208;BMP180;11773;52.570;13.052;2024-03-22T12:43:22;101016.00;;;18.40
23208;BMP180;11773;52.570;13.052;2024-03-22T12:45:48;101022.00;;;18.50
23208;BMP180;11773;52.570;13.052;2024-03-22T12:48:18;101003.00;;;18.40
23208;BMP180;11773;52.570;13.052;2024-03-22T12:50:48;101013.00;;;18.40
23208;BMP180;11773;52.570;13.052;2024-03-22T12:53:18;101001.00;;;18.40
23208;BMP180;11773;52.570;13.052;2024-03-22T12:55:47;101010.00;;;18.40
23208;BMP180;11773;52.570;13.052;2024-03-22T12:58:17;100988.00;;;18.40
23208;BMP180;11773;52.570;13.052;2024-03-22T13:00:47;100993.00;;;18.40
23208;BMP180;11773;52.570;13.052;2024-03-22T13:03:17;100991.00;;;18.40
23208;BMP180;11773;52.570;13.052;2024-03-22T13:05:46;100973.00;;;18.40
23208;BMP180;11773;52.570;13.052;2024-03-22T13:08:16;100972.00;;;18.40
23208;BMP180;11773;52.570;13.052;2024-03-22T13:10:48;100973.00;;;18.40
23208;BMP180;11773;52.570;13.052;2024-03-22T13:13:17;100960.00;;;18.40
23208;BMP180;11773;52.570;13.052;2024-03-22T13:15:47;100973.00;;;18.40
23208;BMP180;11773;52.570;13.052;2024-03-22T13:18:16;100966.00;;;18.40
23208;BMP180;11773;52.570;13.052;2024-03-22T13:20:47;100955.00;;;18.40
23208;BMP180;11773;52.570;13.052;2024-03-22T13:23:17;100963.00;;;18.40
23208;BMP180;11773;52.570;13.052;2024-03-22T13:25:47;100959.00;;;18.30
23208;BMP180;11773;52.570;13.052;2024-03-22T13:28:16;100951.00;;;18.30
23208;BMP180;11773;52.570;13.052;2024-03-22T13:30:48;100950.00;;;18.30
23208;BMP180;11773;52.570;13.052;2024-03-22T13:33:19;100954.00;;;18.30
23208;BMP180;11773;52.570;13.052;2024-03-22T13:35:50;100948.00;;;18.30
23208;BMP180;11773;52.570;13.052;2024-03-22T13:38:20;100946.00;;;18.30
23208;BMP180;11773;52.570;13.052;2024-03-22T13:40:59;100931.00;;;18.30
23208;BMP180;11773;52.570;13.052;2024-03-22T13:43:33;100916.00;;;18.30
23208;BMP180;11773;52.570;13.052;2024-03-22T13:46:04;100929.00;;;18.30
23208;BMP180;11773;52.570;13.052;2024-03-22T13:48:34;100924.00;;;18.30
23208;BMP180;11773;52.570;13.052;2024-03-22T13:51:04;100923.00;;;18.30
23208;BMP180;11773;52.570;13.052;2024-03-22T13:53:33;100929.00;;;18.30
23208;BMP180;11773;52.570;13.052;2024-03-22T13:56:03;100919.00;;;18.30
23208;BMP180;11773;52.570;13.052;2024-03-22T13:58:34;100910.00;;;18.30
23208;BMP180;11773;52.570;13.052;2024-03-22T14:01:04;100908.00;;;18.30